createdAt,value
2019-01-23T00:00:10.193Z,18.28
2019-01-23T00:05:17.819Z,19.73
2019-01-23T00:10:25.531Z,18.91
2019-01-23T00:15:33.188Z,19.50
2019-01-23T00:20:40.948Z,18.91
2019-01-23T00:25:48.628Z,18.72
2019-01-23T00:30:56.393Z,23.09
2019-01-23T00:36:04.056Z,22.94
2019-01-23T00:41:11.780Z,23.07
2019-01-23T00:46:19.476Z,22.68
2019-01-23T00:51:27.203Z,19.07
2019-01-23T00:56:34.859Z,22.75
2019-01-23T01:01:42.644Z,18.06
2019-01-23T01:06:50.372Z,19.07
2019-01-23T01:11:58.139Z,18.52
2019-01-23T01:17:05.835Z,22.95
2019-01-23T01:22:13.591Z,18.96
2019-01-23T01:27:21.247Z,19.06
2019-01-23T01:32:29.041Z,19.09
2019-01-23T01:37:36.736Z,18.08
2019-01-23T01:42:44.658Z,19.11
2019-01-23T01:47:52.399Z,18.57
2019-01-23T01:53:00.193Z,18.00
2019-01-23T01:58:10.186Z,18.24
2019-01-23T02:03:15.668Z,18.75
2019-01-23T02:08:22.476Z,18.55
2019-01-23T02:13:30.244Z,22.43
2019-01-23T02:18:37.929Z,22.83
2019-01-23T02:23:45.787Z,17.71
2019-01-23T02:28:53.565Z,18.09
2019-01-23T02:34:01.436Z,18.62
2019-01-23T02:39:09.115Z,17.78
2019-01-23T02:44:16.904Z,18.08
2019-01-23T02:49:24.617Z,17.32
2019-01-23T02:54:32.331Z,18.08
2019-01-23T02:59:40.059Z,17.04
2019-01-23T03:04:47.773Z,16.96
2019-01-23T03:09:55.449Z,16.53
2019-01-23T03:15:03.259Z,15.82
2019-01-23T03:20:11.062Z,19.83
2019-01-23T03:25:18.976Z,17.04
2019-01-23T03:30:26.668Z,19.79
2019-01-23T03:35:34.470Z,16.40
2019-01-23T03:40:42.194Z,17.08
2019-01-23T03:45:49.999Z,16.91
2019-01-23T03:50:57.720Z,16.40
2019-01-23T03:56:05.535Z,16.98
2019-01-23T04:01:13.202Z,16.38
2019-01-23T04:06:20.998Z,17.01
2019-01-23T04:11:28.648Z,17.77
2019-01-23T04:16:36.527Z,16.69
2019-01-23T04:21:44.329Z,17.18
2019-01-23T04:26:52.180Z,20.54
2019-01-23T04:31:59.863Z,17.15
2019-01-23T04:37:07.661Z,20.14
2019-01-23T04:42:15.498Z,16.63
2019-01-23T04:47:23.211Z,16.11
2019-01-23T04:52:30.867Z,17.08
2019-01-23T04:57:38.658Z,17.04
2019-01-23T05:02:46.380Z,16.67
2019-01-23T05:07:56.820Z,19.22
2019-01-23T05:12:54.694Z,17.02
2019-01-23T05:18:02.451Z,19.52
2019-01-23T05:23:10.177Z,17.23
2019-01-23T05:28:18.136Z,16.33
2019-01-23T05:33:25.851Z,19.80
2019-01-23T05:38:33.743Z,20.05
2019-01-23T05:43:41.420Z,20.44
2019-01-23T05:48:49.303Z,15.98
2019-01-23T05:53:56.980Z,19.55
2019-01-23T05:59:04.820Z,15.79
2019-01-23T06:04:12.540Z,19.70
2019-01-23T06:09:20.302Z,19.94
2019-01-23T06:14:28.061Z,15.14
2019-01-23T06:19:36.020Z,16.95
2019-01-23T06:24:43.729Z,16.38
2019-01-23T06:29:51.436Z,15.92
2019-01-23T06:34:59.110Z,17.21
2019-01-23T06:40:06.902Z,20.37
2019-01-23T06:45:14.569Z,20.13
2019-01-23T06:50:22.383Z,20.81
2019-01-23T06:55:30.061Z,18.30
2019-01-23T07:00:37.862Z,21.19
2019-01-23T07:05:45.580Z,22.65
2019-01-23T07:10:53.327Z,23.25
2019-01-23T07:16:01.122Z,19.81
2019-01-23T07:21:08.885Z,23.50
2019-01-23T07:26:16.587Z,19.68
2019-01-23T07:31:24.369Z,24.08
2019-01-23T07:36:32.091Z,23.33
2019-01-23T07:41:39.862Z,19.60
2019-01-23T07:46:47.581Z,19.19
2019-01-23T07:51:55.331Z,19.18
2019-01-23T07:57:03.021Z,19.11
2019-01-23T08:02:10.781Z,19.62
2019-01-23T08:07:18.512Z,19.25
2019-01-23T08:12:26.315Z,21.56
2019-01-23T08:17:33.899Z,19.67
2019-01-23T08:22:41.673Z,18.54
2019-01-23T08:27:49.416Z,19.03
2019-01-23T08:33:07.988Z,19.59
2019-01-23T08:38:08.180Z,18.82
2019-01-23T08:43:05.968Z,19.85
2019-01-23T08:48:13.599Z,18.82
2019-01-23T08:53:21.514Z,19.33
2019-01-23T08:58:29.229Z,22.27
2019-01-23T09:03:37.017Z,19.12
2019-01-23T09:08:44.771Z,17.14
2019-01-23T09:13:52.505Z,18.56
2019-01-23T09:19:00.371Z,18.02
2019-01-23T09:24:08.229Z,19.10
2019-01-23T09:29:15.970Z,20.02
2019-01-23T09:34:23.767Z,19.52
2019-01-23T09:39:31.534Z,19.69
2019-01-23T09:44:39.277Z,21.89
2019-01-23T09:49:46.972Z,18.72
2019-01-23T09:54:54.770Z,18.84
2019-01-23T10:00:02.507Z,18.11
2019-01-23T10:05:10.386Z,18.07
2019-01-23T10:10:18.093Z,17.37
2019-01-23T10:15:25.891Z,17.79
2019-01-23T10:20:33.616Z,17.93
2019-01-23T10:25:41.489Z,18.57
2019-01-23T10:30:49.133Z,18.83
2019-01-23T10:35:56.995Z,18.63
2019-01-23T10:41:04.705Z,20.99
2019-01-23T10:46:12.554Z,22.05
2019-01-23T10:51:20.212Z,22.19
2019-01-23T10:56:27.963Z,19.70
2019-01-23T11:01:35.615Z,18.64
2019-01-23T11:06:43.467Z,18.17
2019-01-23T11:11:51.166Z,18.91
2019-01-23T11:16:58.952Z,18.43
2019-01-23T11:22:06.638Z,18.00
2019-01-23T11:27:14.582Z,17.81
2019-01-23T11:32:22.288Z,17.56
2019-01-23T11:37:30.157Z,18.50
2019-01-23T11:42:37.937Z,22.03
2019-01-23T11:47:45.799Z,22.68
2019-01-23T11:52:53.361Z,19.92
2019-01-23T11:58:01.175Z,19.94
2019-01-23T12:03:08.888Z,18.94
2019-01-23T12:08:16.814Z,18.87
2019-01-23T12:13:24.511Z,18.77
2019-01-23T12:18:38.232Z,18.34
2019-01-23T12:23:35.935Z,18.43
2019-01-23T12:28:43.812Z,19.33
2019-01-23T12:33:51.519Z,19.94
2019-01-23T12:38:59.428Z,20.05
2019-01-23T12:44:07.107Z,24.54
2019-01-23T12:49:15.174Z,20.85
2019-01-23T12:54:22.941Z,21.55
2019-01-23T12:59:30.673Z,20.77
2019-01-23T13:04:38.377Z,21.90
2019-01-23T13:09:46.119Z,22.68
2019-01-23T13:14:53.825Z,24.28
2019-01-23T13:20:01.558Z,20.11
2019-01-23T13:25:09.285Z,20.51
2019-01-23T13:30:17.045Z,19.42
2019-01-23T13:35:24.745Z,18.42
2019-01-23T13:40:32.472Z,18.66
2019-01-23T13:45:41.722Z,22.50
2019-01-23T13:50:47.410Z,23.90
2019-01-23T13:55:55.139Z,25.49
2019-01-23T14:01:02.984Z,21.58
2019-01-23T14:06:10.721Z,21.83
2019-01-23T14:11:18.516Z,22.37
2019-01-23T14:16:26.229Z,21.73
2019-01-23T14:21:34.375Z,19.69
2019-01-23T14:26:42.047Z,23.22
2019-01-23T14:31:49.890Z,21.96
2019-01-23T14:36:57.598Z,20.16
2019-01-23T14:42:14.009Z,17.27
2019-01-23T14:47:11.738Z,22.56
2019-01-23T14:52:19.546Z,18.63
2019-01-23T14:57:34.561Z,18.57
2019-01-23T15:02:33.963Z,16.59
2019-01-23T15:07:43.375Z,17.78
2019-01-23T15:12:51.205Z,18.50
2019-01-23T15:17:58.937Z,20.01
2019-01-23T15:23:06.735Z,18.15
2019-01-23T15:28:14.485Z,18.85
2019-01-23T15:33:22.353Z,20.13
2019-01-23T15:38:30.062Z,20.18
2019-01-23T15:43:37.821Z,22.67
2019-01-23T15:48:45.511Z,19.91
2019-01-23T15:53:53.313Z,23.47
2019-01-23T15:59:01.017Z,19.56
2019-01-23T16:04:09.058Z,23.91
2019-01-23T16:09:16.756Z,24.50
2019-01-23T16:14:49.429Z,26.01
2019-01-23T16:19:27.075Z,22.43
2019-01-23T16:24:34.843Z,22.16
2019-01-23T16:29:42.511Z,24.01
2019-01-23T16:34:50.376Z,24.26
2019-01-23T16:39:58.089Z,24.66
2019-01-23T16:45:05.878Z,29.58
2019-01-23T16:50:13.562Z,23.61
2019-01-23T16:55:21.443Z,24.39
2019-01-23T17:00:29.168Z,23.70
2019-01-23T17:05:37.011Z,28.75
2019-01-23T17:10:44.719Z,29.71
2019-01-23T17:15:52.446Z,23.82
2019-01-23T17:21:00.158Z,29.14
2019-01-23T17:26:07.966Z,22.83
2019-01-23T17:31:15.677Z,22.83
2019-01-23T17:36:23.552Z,24.81
2019-01-23T17:41:31.283Z,23.29
2019-01-23T17:46:39.081Z,29.34
2019-01-23T17:51:46.807Z,29.25
2019-01-23T17:56:54.888Z,29.05
2019-01-23T18:02:01.775Z,28.20
2019-01-23T18:07:09.576Z,21.59
2019-01-23T18:12:17.303Z,22.35
2019-01-23T18:17:25.195Z,23.47
2019-01-23T18:22:32.843Z,23.61
2019-01-23T18:27:40.703Z,22.96
2019-01-23T18:32:48.421Z,27.75
2019-01-23T18:37:56.367Z,23.57
2019-01-23T18:43:04.116Z,22.06
2019-01-23T18:48:12.031Z,23.31
2019-01-23T18:53:19.728Z,21.62
2019-01-23T18:58:27.489Z,20.22
2019-01-23T19:03:35.206Z,24.73
2019-01-23T19:08:42.999Z,20.82
2019-01-23T19:13:50.666Z,21.58
2019-01-23T19:18:58.486Z,19.04
2019-01-23T19:24:06.153Z,18.39
2019-01-23T19:29:13.968Z,21.52
2019-01-23T19:34:21.752Z,18.20
2019-01-23T19:39:29.501Z,24.39
2019-01-23T19:44:37.245Z,21.69
2019-01-23T19:49:45.098Z,20.01
2019-01-23T19:54:52.909Z,20.89
2019-01-23T20:00:00.769Z,20.55
2019-01-23T20:05:08.475Z,18.55
2019-01-23T20:10:17.193Z,19.88
2019-01-23T20:15:23.499Z,18.72
2019-01-23T20:20:31.408Z,19.29
2019-01-23T20:25:39.144Z,20.21
2019-01-23T20:30:47.005Z,20.77
2019-01-23T20:35:54.778Z,19.67
2019-01-23T20:41:02.649Z,18.82
2019-01-23T20:46:10.332Z,19.77
2019-01-23T20:51:18.061Z,18.77
2019-01-23T20:56:25.829Z,23.75
2019-01-23T21:01:33.641Z,19.18
2019-01-23T21:06:41.340Z,19.24
2019-01-23T21:11:49.309Z,18.80
2019-01-23T21:16:57.486Z,19.76
2019-01-23T21:22:04.675Z,19.42
2019-01-23T21:27:11.446Z,20.51
2019-01-23T21:32:19.176Z,23.96
2019-01-23T21:37:26.921Z,19.11
2019-01-23T21:42:34.652Z,18.58
2019-01-23T21:47:42.469Z,20.23
2019-01-23T21:52:50.213Z,20.57
2019-01-23T21:57:57.965Z,24.29
2019-01-23T22:03:05.738Z,24.57
2019-01-23T22:08:13.472Z,20.24
2019-01-23T22:13:21.340Z,20.60
2019-01-23T22:18:29.139Z,19.70
2019-01-23T22:23:36.865Z,19.92
2019-01-23T22:28:44.512Z,20.27
2019-01-23T22:33:56.168Z,20.96
2019-01-23T22:38:59.764Z,20.54
2019-01-23T22:44:07.489Z,20.10
2019-01-23T22:49:15.165Z,19.38
2019-01-23T22:54:22.873Z,20.60
2019-01-23T22:59:30.508Z,19.66
2019-01-23T23:04:38.244Z,21.03
2019-01-23T23:09:45.924Z,20.46
2019-01-23T23:14:53.818Z,19.91
2019-01-23T23:20:01.543Z,23.13
2019-01-23T23:25:09.478Z,24.11
2019-01-23T23:30:17.187Z,23.40
2019-01-23T23:35:25.063Z,24.48
2019-01-23T23:40:32.788Z,20.73
2019-01-23T23:45:40.551Z,24.76
2019-01-23T23:50:48.235Z,21.00
2019-01-23T23:55:55.953Z,20.17
